createdAt,value
2019-01-20T00:01:35.040Z,100100.12
2019-01-20T00:04:01.313Z,100092.20
2019-01-20T00:06:27.497Z,100095.85
2019-01-20T00:08:53.738Z,100092.02
2019-01-20T00:11:19.912Z,100097.36
2019-01-20T00:13:46.079Z,100093.38
2019-01-20T00:16:12.355Z,100088.98
2019-01-20T00:18:38.546Z,100080.34
2019-01-20T00:21:04.885Z,100085.33
2019-01-20T00:23:31.219Z,100088.19
2019-01-20T00:25:57.421Z,100088.21
2019-01-20T00:28:23.609Z,100091.61
2019-01-20T00:30:49.966Z,100091.77
2019-01-20T00:33:16.312Z,100082.53
2019-01-20T00:35:42.487Z,100090.25
2019-01-20T00:38:08.786Z,100085.09
2019-01-20T00:40:34.987Z,100088.77
2019-01-20T00:43:01.222Z,100085.25
2019-01-20T00:45:27.434Z,100086.75
2019-01-20T00:47:53.607Z,100080.62
2019-01-20T00:50:19.822Z,100082.66
2019-01-20T00:52:46.166Z,100080.28
2019-01-20T00:55:15.466Z,100081.41
2019-01-20T00:57:42.568Z,100079.81
2019-01-20T01:00:17.931Z,100082.56
2019-01-20T01:02:44.283Z,100078.32
2019-01-20T01:05:10.957Z,100075.35
2019-01-20T01:07:37.418Z,100074.05
2019-01-20T01:10:06.642Z,100080.52
2019-01-20T01:12:33.085Z,100075.36
2019-01-20T01:14:59.451Z,100075.69
2019-01-20T01:17:25.601Z,100072.98
2019-01-20T01:19:51.842Z,100075.25
2019-01-20T01:22:18.022Z,100074.77
2019-01-20T01:24:44.254Z,100071.06
2019-01-20T01:27:10.605Z,100070.73
2019-01-20T01:29:36.845Z,100067.49
2019-01-20T01:32:03.116Z,100073.64
2019-01-20T01:34:29.332Z,100069.91
2019-01-20T01:36:55.558Z,100068.07
2019-01-20T01:39:21.726Z,100066.62
2019-01-20T01:41:48.001Z,100066.31
2019-01-20T01:44:14.437Z,100060.39
2019-01-20T01:46:40.642Z,100058.62
2019-01-20T01:49:08.765Z,100052.39
2019-01-20T01:51:35.033Z,100052.84
2019-01-20T01:54:01.214Z,100046.72
2019-01-20T01:56:27.431Z,100048.22
2019-01-20T01:58:53.654Z,100048.25
2019-01-20T02:01:21.818Z,100047.36
2019-01-20T02:03:48.014Z,100046.78
2019-01-20T02:06:14.267Z,100045.45
2019-01-20T02:08:40.432Z,100047.99
2019-01-20T02:11:06.758Z,100041.84
2019-01-20T02:13:32.975Z,100046.55
2019-01-20T02:15:59.495Z,100043.20
2019-01-20T02:18:26.373Z,100045.66
2019-01-20T02:20:52.627Z,100045.44
2019-01-20T02:23:18.823Z,100042.11
2019-01-20T02:25:45.069Z,100041.09
2019-01-20T02:28:11.263Z,100040.55
2019-01-20T02:30:37.481Z,100040.31
2019-01-20T02:33:03.698Z,100042.88
2019-01-20T02:35:29.952Z,100036.78
2019-01-20T02:37:56.258Z,100038.53
2019-01-20T02:40:22.517Z,100038.12
2019-01-20T02:42:48.746Z,100036.90
2019-01-20T02:45:15.524Z,100036.45
2019-01-20T02:47:44.783Z,100036.62
2019-01-20T02:50:14.781Z,100040.50
2019-01-20T02:52:41.109Z,100045.99
2019-01-20T02:55:07.535Z,100039.66
2019-01-20T02:57:33.807Z,100035.09
2019-01-20T02:59:59.995Z,100035.42
2019-01-20T03:02:26.195Z,100033.50
2019-01-20T03:04:52.389Z,100036.70
2019-01-20T03:07:18.813Z,100039.34
2019-01-20T03:09:45.008Z,100037.23
2019-01-20T03:12:11.187Z,100033.45
2019-01-20T03:14:37.365Z,100039.19
2019-01-20T03:17:03.584Z,100038.08
2019-01-20T03:19:30.234Z,100035.70
2019-01-20T03:21:56.834Z,100039.00
2019-01-20T03:24:22.999Z,100043.87
2019-01-20T03:26:49.430Z,100042.27
2019-01-20T03:29:15.738Z,100034.31
2019-01-20T03:31:41.892Z,100044.60
2019-01-20T03:34:08.080Z,100039.12
2019-01-20T03:36:34.294Z,100036.20
2019-01-20T03:39:01.370Z,100036.41
2019-01-20T03:41:27.564Z,100030.94
2019-01-20T03:43:53.850Z,100032.86
2019-01-20T03:46:20.026Z,100031.06
2019-01-20T03:48:46.234Z,100036.20
2019-01-20T03:51:12.718Z,100034.13
2019-01-20T03:53:38.970Z,100036.17
2019-01-20T03:56:05.199Z,100034.86
2019-01-20T03:58:31.451Z,100035.33
2019-01-20T04:00:57.885Z,100034.20
2019-01-20T04:03:24.104Z,100032.88
2019-01-20T04:05:50.870Z,100032.10
2019-01-20T04:08:17.144Z,100031.86
2019-01-20T04:10:43.351Z,100037.78
2019-01-20T04:13:09.559Z,100029.56
2019-01-20T04:15:35.767Z,100031.16
2019-01-20T04:18:04.136Z,100033.72
2019-01-20T04:20:30.370Z,100031.25
2019-01-20T04:22:56.648Z,100034.13
2019-01-20T04:25:22.839Z,100036.75
2019-01-20T04:27:49.663Z,100034.39
2019-01-20T04:30:18.649Z,100030.46
2019-01-20T04:32:44.933Z,100029.77
2019-01-20T04:35:11.548Z,100033.91
2019-01-20T04:37:37.806Z,100030.01
2019-01-20T04:40:08.991Z,100023.69
2019-01-20T04:42:35.241Z,100024.34
2019-01-20T04:45:02.259Z,100029.31
2019-01-20T04:47:29.113Z,100028.83
2019-01-20T04:49:55.346Z,100032.01
2019-01-20T04:52:21.753Z,100037.09
2019-01-20T04:54:48.026Z,100035.95
2019-01-20T04:57:16.241Z,100043.99
2019-01-20T04:59:42.748Z,100038.86
2019-01-20T05:02:09.147Z,100046.14
2019-01-20T05:04:35.333Z,100044.45
2019-01-20T05:07:01.575Z,100039.78
2019-01-20T05:09:27.904Z,100046.08
2019-01-20T05:11:54.094Z,100044.77
2019-01-20T05:14:20.335Z,100046.84
2019-01-20T05:16:46.550Z,100043.67
2019-01-20T05:19:13.117Z,100044.07
2019-01-20T05:21:39.409Z,100040.26
2019-01-20T05:24:05.591Z,100039.59
2019-01-20T05:26:31.798Z,100038.39
2019-01-20T05:28:58.280Z,100039.38
2019-01-20T05:31:24.461Z,100042.80
2019-01-20T05:33:51.026Z,100045.97
2019-01-20T05:36:17.229Z,100047.61
2019-01-20T05:38:43.467Z,100051.06
2019-01-20T05:41:09.697Z,100051.66
2019-01-20T05:43:35.923Z,100052.78
2019-01-20T05:46:03.769Z,100053.53
2019-01-20T05:48:30.049Z,100056.67
2019-01-20T05:50:56.483Z,100062.14
2019-01-20T05:53:22.710Z,100058.20
2019-01-20T05:55:48.990Z,100055.82
2019-01-20T05:58:15.323Z,100059.99
2019-01-20T06:00:41.492Z,100060.83
2019-01-20T06:03:09.207Z,100050.77
2019-01-20T06:05:35.451Z,100054.88
2019-01-20T06:08:01.772Z,100051.52
2019-01-20T06:10:28.071Z,100056.58
2019-01-20T06:12:54.629Z,100058.00
2019-01-20T06:15:22.044Z,100057.53
2019-01-20T06:17:48.584Z,100064.80
2019-01-20T06:20:15.915Z,100069.42
2019-01-20T06:22:42.449Z,100069.26
2019-01-20T06:25:08.763Z,100071.00
2019-01-20T06:27:35.044Z,100076.91
2019-01-20T06:30:01.475Z,100072.94
2019-01-20T06:32:28.060Z,100072.79
2019-01-20T06:34:54.331Z,100075.02
2019-01-20T06:37:20.512Z,100081.38
2019-01-20T06:39:46.845Z,100080.87
2019-01-20T06:42:13.155Z,100084.07
2019-01-20T06:44:39.535Z,100087.98
2019-01-20T06:47:06.161Z,100095.53
2019-01-20T06:49:32.536Z,100098.05
2019-01-20T06:51:58.725Z,100102.64
2019-01-20T06:54:26.275Z,100103.55
2019-01-20T06:56:52.603Z,100097.71
2019-01-20T06:59:19.034Z,100102.42
2019-01-20T07:01:45.256Z,100101.77
2019-01-20T07:04:11.439Z,100098.91
2019-01-20T07:06:37.980Z,100105.49
2019-01-20T07:09:07.243Z,100105.81
2019-01-20T07:11:33.708Z,100105.42
2019-01-20T07:13:59.918Z,100101.91
2019-01-20T07:16:27.450Z,100104.13
2019-01-20T07:18:53.655Z,100104.39
2019-01-20T07:21:19.875Z,100106.55
2019-01-20T07:23:46.394Z,100115.00
2019-01-20T07:26:12.579Z,100119.19
2019-01-20T07:28:38.846Z,100118.06
2019-01-20T07:31:05.018Z,100126.32
2019-01-20T07:33:31.330Z,100126.19
2019-01-20T07:35:58.890Z,100128.41
2019-01-20T07:38:25.223Z,100127.40
2019-01-20T07:40:51.449Z,100133.88
2019-01-20T07:43:17.631Z,100141.19
2019-01-20T07:45:43.836Z,100138.16
2019-01-20T07:48:10.080Z,100143.86
2019-01-20T07:50:36.387Z,100149.75
2019-01-20T07:53:02.613Z,100153.77
2019-01-20T07:55:29.587Z,100158.95
2019-01-20T07:57:55.864Z,100157.59
2019-01-20T08:00:23.546Z,100165.17
2019-01-20T08:02:52.111Z,100167.62
2019-01-20T08:05:18.847Z,100167.86
2019-01-20T08:07:45.286Z,100173.88
2019-01-20T08:10:21.719Z,100173.76
2019-01-20T08:12:49.998Z,100179.03
2019-01-20T08:15:17.346Z,100179.45
2019-01-20T08:17:43.610Z,100179.58
2019-01-20T08:20:19.416Z,100181.72
2019-01-20T08:22:45.594Z,100183.09
2019-01-20T08:25:14.912Z,100187.27
2019-01-20T08:27:41.226Z,100185.98
2019-01-20T08:30:12.286Z,100184.95
2019-01-20T08:32:38.911Z,100190.79
2019-01-20T08:35:07.039Z,100190.06
2019-01-20T08:37:34.289Z,100189.98
2019-01-20T08:40:00.645Z,100189.46
2019-01-20T08:42:26.929Z,100185.44
2019-01-20T08:44:53.244Z,100190.81
2019-01-20T08:47:21.608Z,100193.43
2019-01-20T08:49:48.263Z,100191.64
2019-01-20T08:52:14.482Z,100196.44
2019-01-20T08:54:40.716Z,100193.08
2019-01-20T08:57:06.946Z,100197.45
2019-01-20T08:59:33.179Z,100193.36
2019-01-20T09:01:59.671Z,100197.41
2019-01-20T09:04:25.902Z,100193.08
2019-01-20T09:06:52.171Z,100197.78
2019-01-20T09:09:18.389Z,100199.95
2019-01-20T09:11:45.460Z,100202.73
2019-01-20T09:14:11.760Z,100193.95
2019-01-20T09:16:38.089Z,100193.75
2019-01-20T09:19:04.487Z,100198.02
2019-01-20T09:21:31.169Z,100202.59
2019-01-20T09:23:59.198Z,100200.81
2019-01-20T09:26:32.040Z,100201.30
2019-01-20T09:29:02.742Z,100200.52
2019-01-20T09:31:38.365Z,100198.19
2019-01-20T09:34:05.074Z,100198.94
2019-01-20T09:36:31.983Z,100202.31
2019-01-20T09:38:59.531Z,100201.81
2019-01-20T09:41:26.008Z,100200.36
2019-01-20T09:43:52.315Z,100200.58
2019-01-20T09:46:25.084Z,100197.45
2019-01-20T09:48:51.663Z,100202.58
2019-01-20T09:51:17.898Z,100203.48
2019-01-20T09:53:44.113Z,100208.00
2019-01-20T09:56:10.616Z,100196.25
2019-01-20T09:58:36.822Z,100195.87
2019-01-20T10:01:03.741Z,100197.31
2019-01-20T10:03:29.902Z,100197.75
2019-01-20T10:05:56.143Z,100200.69
2019-01-20T10:08:22.292Z,100198.88
2019-01-20T10:10:48.520Z,100203.69
2019-01-20T10:13:14.839Z,100201.00
2019-01-20T10:15:41.086Z,100199.83
2019-01-20T10:18:09.378Z,100202.81
2019-01-20T10:20:35.624Z,100200.27
2019-01-20T10:23:01.806Z,100200.59
2019-01-20T10:25:28.032Z,100200.69
2019-01-20T10:27:54.229Z,100204.52
2019-01-20T10:30:33.168Z,100202.59
2019-01-20T10:32:59.609Z,100198.31
2019-01-20T10:35:27.939Z,100199.75
2019-01-20T10:37:55.870Z,100194.48
2019-01-20T10:40:22.198Z,100191.93
2019-01-20T10:42:48.515Z,100187.61
2019-01-20T10:45:14.990Z,100185.25
2019-01-20T10:47:41.260Z,100177.61
2019-01-20T10:50:14.110Z,100180.20
2019-01-20T10:52:40.331Z,100176.70
2019-01-20T10:55:07.625Z,100176.77
2019-01-20T10:57:34.365Z,100170.39
2019-01-20T11:00:00.551Z,100175.34
2019-01-20T11:02:26.968Z,100177.41
2019-01-20T11:04:57.443Z,100170.50
2019-01-20T11:07:21.356Z,100169.56
2019-01-20T11:09:47.554Z,100174.41
2019-01-20T11:12:13.770Z,100178.56
2019-01-20T11:14:39.948Z,100161.91
2019-01-20T11:17:06.182Z,100168.38
2019-01-20T11:19:32.391Z,100170.97
2019-01-20T11:21:58.637Z,100171.25
2019-01-20T11:24:24.815Z,100170.80
2019-01-20T11:26:51.050Z,100167.88
2019-01-20T11:29:17.796Z,100169.42
2019-01-20T11:31:44.120Z,100170.44
2019-01-20T11:34:10.843Z,100164.03
2019-01-20T11:36:39.445Z,100171.34
2019-01-20T11:39:08.207Z,100172.19
2019-01-20T11:41:34.743Z,100173.36
2019-01-20T11:44:00.933Z,100171.24
2019-01-20T11:46:27.235Z,100165.44
2019-01-20T11:48:53.480Z,100169.43
2019-01-20T11:51:20.021Z,100167.14
2019-01-20T11:53:46.275Z,100170.13
2019-01-20T11:56:12.872Z,100168.47
2019-01-20T11:58:39.180Z,100167.46
2019-01-20T12:01:05.343Z,100167.64
2019-01-20T12:03:31.725Z,100161.45
2019-01-20T12:05:57.902Z,100165.11
2019-01-20T12:08:30.420Z,100159.28
2019-01-20T12:10:52.304Z,100157.61
2019-01-20T12:13:19.443Z,100162.42
2019-01-20T12:15:45.769Z,100163.73
2019-01-20T12:18:11.995Z,100162.37
2019-01-20T12:20:38.289Z,100161.55
2019-01-20T12:23:04.809Z,100154.39
2019-01-20T12:25:31.004Z,100156.92
2019-01-20T12:27:57.238Z,100147.59
2019-01-20T12:30:31.329Z,100148.09
2019-01-20T12:32:57.560Z,100146.77
2019-01-20T12:35:23.766Z,100143.44
2019-01-20T12:37:50.126Z,100141.77
2019-01-20T12:40:39.251Z,100141.78
2019-01-20T12:43:05.490Z,100138.28
2019-01-20T12:45:31.678Z,100137.47
2019-01-20T12:47:57.933Z,100133.95
2019-01-20T12:50:24.100Z,100137.95
2019-01-20T12:52:50.347Z,100133.45
2019-01-20T12:55:16.839Z,100138.77
2019-01-20T12:57:43.288Z,100134.58
2019-01-20T13:00:18.573Z,100138.41
2019-01-20T13:02:48.056Z,100136.85
2019-01-20T13:05:14.673Z,100139.79
2019-01-20T13:07:41.099Z,100137.28
2019-01-20T13:10:16.331Z,100140.73
2019-01-20T13:12:42.708Z,100139.17
2019-01-20T13:15:12.974Z,100142.56
2019-01-20T13:17:39.228Z,100141.81
2019-01-20T13:20:10.821Z,100142.88
2019-01-20T13:22:37.003Z,100139.06
2019-01-20T13:25:08.063Z,100143.46
2019-01-20T13:27:34.260Z,100145.50
2019-01-20T13:30:00.546Z,100143.11
2019-01-20T13:32:26.850Z,100143.09
2019-01-20T13:34:53.111Z,100141.94
2019-01-20T13:37:19.269Z,100143.89
2019-01-20T13:39:45.531Z,100144.09
2019-01-20T13:42:11.691Z,100138.43
2019-01-20T13:44:37.945Z,100144.25
2019-01-20T13:47:04.316Z,100148.45
2019-01-20T13:49:30.482Z,100150.05
2019-01-20T13:51:56.656Z,100146.38
2019-01-20T13:54:22.931Z,100146.24
2019-01-20T13:56:49.918Z,100151.63
2019-01-20T13:59:16.252Z,100149.78
2019-01-20T14:01:42.743Z,100149.48
2019-01-20T14:04:09.223Z,100148.80
2019-01-20T14:06:35.420Z,100153.39
2019-01-20T14:09:01.630Z,100148.52
2019-01-20T14:11:27.980Z,100154.81
2019-01-20T14:13:54.298Z,100155.45
2019-01-20T14:16:21.054Z,100166.88
2019-01-20T14:18:47.252Z,100161.60
2019-01-20T14:21:13.414Z,100168.50
2019-01-20T14:23:39.769Z,100170.59
2019-01-20T14:26:06.750Z,100172.02
2019-01-20T14:28:33.434Z,100173.42
2019-01-20T14:30:59.610Z,100175.66
2019-01-20T14:33:25.833Z,100172.54
2019-01-20T14:35:52.070Z,100181.81
2019-01-20T14:38:18.318Z,100185.53
2019-01-20T14:40:44.544Z,100183.70
2019-01-20T14:43:10.933Z,100185.33
2019-01-20T14:45:37.267Z,100189.14
2019-01-20T14:48:03.804Z,100187.48
2019-01-20T14:50:33.105Z,100187.23
2019-01-20T14:52:59.347Z,100193.70
2019-01-20T14:55:25.567Z,100190.95
2019-01-20T14:57:52.207Z,100194.80
2019-01-20T15:00:32.481Z,100198.62
2019-01-20T15:02:59.215Z,100198.63
2019-01-20T15:05:27.890Z,100201.56
2019-01-20T15:07:54.414Z,100206.86
2019-01-20T15:10:20.799Z,100208.88
2019-01-20T15:12:47.043Z,100212.84
2019-01-20T15:15:29.831Z,100220.63
2019-01-20T15:17:56.005Z,100222.27
2019-01-20T15:20:22.248Z,100224.77
2019-01-20T15:22:48.472Z,100221.84
2019-01-20T15:25:17.784Z,100229.59
2019-01-20T15:27:44.818Z,100228.52
2019-01-20T15:30:20.696Z,100231.23
2019-01-20T15:32:48.451Z,100231.73
2019-01-20T15:35:14.841Z,100236.25
2019-01-20T15:37:41.111Z,100229.09
2019-01-20T15:40:13.085Z,100232.72
2019-01-20T15:42:39.362Z,100241.08
2019-01-20T15:45:16.354Z,100238.95
2019-01-20T15:47:38.731Z,100236.87
2019-01-20T15:50:13.054Z,100234.14
2019-01-20T15:52:39.271Z,100235.61
2019-01-20T15:55:08.008Z,100236.48
2019-01-20T15:57:34.159Z,100243.55
2019-01-20T16:00:00.908Z,100248.28
2019-01-20T16:02:27.221Z,100246.84
2019-01-20T16:04:53.453Z,100251.91
2019-01-20T16:07:19.713Z,100252.17
2019-01-20T16:09:45.953Z,100261.93
2019-01-20T16:12:12.182Z,100263.59
2019-01-20T16:14:38.458Z,100269.50
2019-01-20T16:17:04.619Z,100272.14
2019-01-20T16:19:31.188Z,100275.52
2019-01-20T16:21:57.398Z,100276.78
2019-01-20T16:24:23.629Z,100282.79
2019-01-20T16:26:49.954Z,100275.16
2019-01-20T16:29:16.185Z,100282.83
2019-01-20T16:31:42.401Z,100282.19
2019-01-20T16:34:08.713Z,100286.30
2019-01-20T16:36:34.946Z,100285.61
2019-01-20T16:39:01.151Z,100291.86
2019-01-20T16:41:27.382Z,100294.37
2019-01-20T16:43:53.619Z,100292.22
2019-01-20T16:46:20.304Z,100303.01
2019-01-20T16:48:46.503Z,100306.75
2019-01-20T16:51:13.195Z,100310.98
2019-01-20T16:53:39.409Z,100311.28
2019-01-20T16:56:05.757Z,100319.83
2019-01-20T16:58:31.923Z,100323.47
2019-01-20T17:00:58.423Z,100319.72
2019-01-20T17:03:24.784Z,100321.52
2019-01-20T17:05:51.347Z,100330.73
2019-01-20T17:08:17.866Z,100334.36
2019-01-20T17:10:44.164Z,100335.64
2019-01-20T17:13:10.357Z,100338.62
2019-01-20T17:15:40.056Z,100343.34
2019-01-20T17:18:09.412Z,100339.92
2019-01-20T17:20:35.618Z,100341.67
2019-01-20T17:23:01.783Z,100347.38
2019-01-20T17:25:28.027Z,100343.27
2019-01-20T17:27:54.232Z,100347.17
2019-01-20T17:30:25.002Z,100347.34
2019-01-20T17:32:52.402Z,100351.39
2019-01-20T17:35:19.701Z,100354.13
2019-01-20T17:37:48.773Z,100356.28
2019-01-20T17:40:28.055Z,100360.88
2019-01-20T17:42:54.566Z,100364.37
2019-01-20T17:45:24.712Z,100368.67
2019-01-20T17:47:50.939Z,100362.55
2019-01-20T17:50:22.310Z,100368.69
2019-01-20T17:52:48.898Z,100367.11
2019-01-20T17:55:15.085Z,100375.34
2019-01-20T17:57:41.327Z,100377.61
2019-01-20T18:00:18.378Z,100380.28
2019-01-20T18:02:44.782Z,100379.86
2019-01-20T18:05:15.681Z,100377.14
2019-01-20T18:07:41.877Z,100382.23
2019-01-20T18:10:11.236Z,100381.53
2019-01-20T18:12:37.434Z,100384.34
2019-01-20T18:15:08.607Z,100389.72
2019-01-20T18:17:35.017Z,100391.60
2019-01-20T18:20:01.500Z,100390.91
2019-01-20T18:22:27.712Z,100400.45
2019-01-20T18:24:54.087Z,100406.97
2019-01-20T18:27:20.314Z,100407.58
2019-01-20T18:29:46.975Z,100408.45
2019-01-20T18:32:13.256Z,100411.34
2019-01-20T18:34:39.432Z,100412.75
2019-01-20T18:37:05.711Z,100415.66
2019-01-20T18:39:31.896Z,100413.73
2019-01-20T18:41:58.118Z,100426.75
2019-01-20T18:44:24.319Z,100418.92
2019-01-20T18:46:50.538Z,100424.95
2019-01-20T18:49:16.713Z,100423.43
2019-01-20T18:51:43.211Z,100420.43
2019-01-20T18:54:09.638Z,100423.38
2019-01-20T18:56:35.973Z,100423.06
2019-01-20T18:59:02.417Z,100425.25
2019-01-20T19:01:29.132Z,100431.41
2019-01-20T19:03:55.330Z,100436.69
2019-01-20T19:06:21.933Z,100434.01
2019-01-20T19:08:48.132Z,100440.45
2019-01-20T19:11:14.388Z,100442.02
2019-01-20T19:13:40.564Z,100443.20
2019-01-20T19:16:09.026Z,100445.10
2019-01-20T19:18:35.346Z,100449.27
2019-01-20T19:21:01.519Z,100450.77
2019-01-20T19:23:27.982Z,100451.97
2019-01-20T19:25:54.161Z,100453.77
2019-01-20T19:28:20.369Z,100454.09
2019-01-20T19:30:47.095Z,100453.66
2019-01-20T19:33:13.411Z,100452.65
2019-01-20T19:35:39.596Z,100456.22
2019-01-20T19:38:05.819Z,100461.45
2019-01-20T19:40:32.035Z,100461.29
2019-01-20T19:42:58.528Z,100465.91
2019-01-20T19:45:24.783Z,100469.44
2019-01-20T19:47:54.245Z,100471.11
2019-01-20T19:50:20.551Z,100478.66
2019-01-20T19:52:47.233Z,100481.02
2019-01-20T19:55:21.041Z,100482.02
2019-01-20T19:57:47.781Z,100478.19
2019-01-20T20:00:26.528Z,100481.34
2019-01-20T20:02:52.779Z,100488.10
2019-01-20T20:05:20.335Z,100483.27
2019-01-20T20:07:47.244Z,100488.13
2019-01-20T20:10:20.061Z,100491.21
2019-01-20T20:12:46.324Z,100498.73
2019-01-20T20:15:16.616Z,100499.97
2019-01-20T20:17:43.419Z,100501.49
2019-01-20T20:20:13.810Z,100506.00
2019-01-20T20:22:40.045Z,100512.50
2019-01-20T20:25:08.866Z,100515.34
2019-01-20T20:27:35.377Z,100514.45
2019-01-20T20:30:10.902Z,100508.44
2019-01-20T20:32:37.285Z,100509.34
2019-01-20T20:35:07.315Z,100509.33
2019-01-20T20:37:33.546Z,100513.08
2019-01-20T20:39:59.748Z,100516.36
2019-01-20T20:42:26.221Z,100521.20
2019-01-20T20:44:52.405Z,100521.95
2019-01-20T20:47:18.650Z,100525.72
2019-01-20T20:49:44.808Z,100528.66
2019-01-20T20:52:11.050Z,100532.51
2019-01-20T20:54:37.659Z,100532.98
2019-01-20T20:57:04.182Z,100536.37
2019-01-20T20:59:30.363Z,100539.02
2019-01-20T21:01:56.635Z,100541.29
2019-01-20T21:04:24.022Z,100544.50
2019-01-20T21:06:50.613Z,100543.55
2019-01-20T21:09:16.834Z,100545.20
2019-01-20T21:11:43.004Z,100550.14
2019-01-20T21:14:10.039Z,100551.02
2019-01-20T21:16:38.038Z,100549.61
2019-01-20T21:19:05.615Z,100551.73
2019-01-20T21:21:31.815Z,100554.23
2019-01-20T21:23:58.012Z,100557.97
2019-01-20T21:26:24.204Z,100557.37
2019-01-20T21:28:50.424Z,100561.14
2019-01-20T21:31:16.741Z,100564.58
2019-01-20T21:33:42.979Z,100564.20
2019-01-20T21:36:09.182Z,100566.05
2019-01-20T21:38:35.375Z,100566.13
2019-01-20T21:41:01.587Z,100575.30
2019-01-20T21:43:27.794Z,100578.61
2019-01-20T21:45:54.912Z,100579.30
2019-01-20T21:48:21.169Z,100580.54
2019-01-20T21:50:47.522Z,100585.38
2019-01-20T21:53:14.043Z,100582.34
2019-01-20T21:55:40.203Z,100583.12
2019-01-20T21:58:06.428Z,100591.36
2019-01-20T22:00:32.605Z,100589.98
2019-01-20T22:02:58.815Z,100594.68
2019-01-20T22:05:27.928Z,100596.58
2019-01-20T22:07:54.922Z,100597.16
2019-01-20T22:10:22.704Z,100597.46
2019-01-20T22:12:48.923Z,100600.52
2019-01-20T22:15:15.417Z,100601.73
2019-01-20T22:17:42.499Z,100606.69
2019-01-20T22:20:15.275Z,100600.73
2019-01-20T22:22:41.964Z,100608.27
2019-01-20T22:25:10.353Z,100607.36
2019-01-20T22:27:36.993Z,100604.52
2019-01-20T22:30:16.883Z,100607.04
2019-01-20T22:32:43.068Z,100610.22
2019-01-20T22:35:11.647Z,100610.81
2019-01-20T22:37:38.135Z,100614.09
2019-01-20T22:40:08.213Z,100609.95
2019-01-20T22:42:34.409Z,100618.89
2019-01-20T22:45:00.551Z,100618.70
2019-01-20T22:47:26.702Z,100622.08
2019-01-20T22:49:52.908Z,100620.81
2019-01-20T22:52:19.070Z,100624.97
2019-01-20T22:54:45.275Z,100632.25
2019-01-20T22:57:11.439Z,100634.05
2019-01-20T22:59:37.637Z,100629.06
2019-01-20T23:02:04.497Z,100630.09
2019-01-20T23:04:30.681Z,100625.66
2019-01-20T23:06:56.843Z,100623.03
2019-01-20T23:09:23.023Z,100619.87
2019-01-20T23:11:49.196Z,100623.47
2019-01-20T23:14:15.394Z,100625.31
2019-01-20T23:16:41.571Z,100627.19
2019-01-20T23:19:07.829Z,100628.45
2019-01-20T23:21:33.996Z,100633.28
2019-01-20T23:24:00.208Z,100626.45
2019-01-20T23:26:26.380Z,100629.89
2019-01-20T23:28:52.633Z,100627.14
2019-01-20T23:31:18.952Z,100631.03
2019-01-20T23:33:45.192Z,100629.55
2019-01-20T23:36:11.424Z,100623.98
2019-01-20T23:38:37.657Z,100630.94
2019-01-20T23:41:03.835Z,100635.83
2019-01-20T23:43:30.042Z,100637.09
2019-01-20T23:45:56.204Z,100637.55
2019-01-20T23:48:22.385Z,100641.34
2019-01-20T23:50:48.607Z,100646.22
2019-01-20T23:53:14.769Z,100645.58
2019-01-20T23:55:40.957Z,100644.64
2019-01-20T23:58:07.127Z,100647.97
